Terminal Aerodrome Forecast
Issued by NWS

Home | Current Version | Previous Version | Text Only | Print | Product List | Glossary On
Versions: 1 2 3 4 5 6 7 8 9 10 11 12 13 14 15 16 17 18
000
FTUS46 KHNX 201750
TAFMER
TAF
KMER 201750Z 2018/2118 14025G30KT P6SM -RA SCT025 OVC050
      TEMPO 2018/2020 14025G35KT 3SM RA BR BKN025
     FM202000 23011KT P6SM -SHRA SCT025 BKN040
      TEMPO 2022/2102 3SM TSRAPL BKN025CB
     FM210300 27013KT P6SM -SHRA OVC040
     FM211500 13005KT 4SM BR BKN040=

USA.gov is the U.S. government's official web portal to all federal, state and local government web resources and services.